Time;durP1;ratioP1;P1;durP2;ratioP2;P2;SDS_P1;SDS_P2;PMS_P1;PMS_P2;Temp;Humidity;BMP_temperature;BMP_pressure;BME280_temperature;BME280_humidity;BME280_pressure;Samples;Min_cycle;Max_cycle;Signal;HPM_P1;HPM_P2
2021/10/13 00:00:30;;;;;;;25.08;15.27;;;7.90;99.90;;;;;;4915593;29;20039;-73
2021/10/13 00:02:56;;;;;;;26.90;15.20;;;7.80;99.90;;;;;;4930219;29;20043;-73
2021/10/13 00:05:21;;;;;;;35.33;16.80;;;7.60;99.90;;;;;;4913346;29;20060;-74
2021/10/13 00:07:47;;;;;;;32.08;17.30;;;7.70;99.90;;;;;;4915453;29;20028;-72
2021/10/13 00:10:12;;;;;;;35.00;18.20;;;7.60;99.90;;;;;;4913815;29;20036;-73
2021/10/13 00:12:38;;;;;;;30.20;16.15;;;7.70;99.90;;;;;;4914247;29;20020;-72
2021/10/13 00:15:10;;;;;;;21.75;14.65;;;7.50;99.90;;;;;;4914872;29;20032;-72
2021/10/13 00:17:36;;;;;;;21.75;13.38;;;7.40;99.90;;;;;;4915396;29;20033;-73
2021/10/13 00:20:04;;;;;;;22.15;14.10;;;7.40;99.90;;;;;;4915379;29;20039;-72
2021/10/13 00:22:30;;;;;;;22.25;13.30;;;7.30;99.90;;;;;;4915420;29;20055;-72
2021/10/13 00:24:55;;;;;;;18.60;12.27;;;7.30;99.90;;;;;;4914708;29;20060;-72
2021/10/13 00:27:21;;;;;;;18.80;13.27;;;7.20;99.90;;;;;;4930071;29;20055;-71
2021/10/13 00:29:47;;;;;;;17.70;12.23;;;7.20;99.90;;;;;;4915331;29;20472;-71
2021/10/13 00:32:12;;;;;;;19.58;12.32;;;7.30;99.90;;;;;;4915273;29;20028;-72
2021/10/13 00:34:38;;;;;;;25.20;14.75;;;7.40;99.90;;;;;;4914278;29;20047;-72
2021/10/13 00:37:04;;;;;;;26.58;14.85;;;7.40;99.90;;;;;;4914989;29;20039;-72
2021/10/13 00:39:30;;;;;;;26.02;15.95;;;7.40;99.90;;;;;;4915128;29;20109;-72
2021/10/13 00:41:55;;;;;;;27.55;15.45;;;7.50;99.90;;;;;;4915204;29;20115;-72
2021/10/13 00:44:21;;;;;;;31.13;16.33;;;7.50;99.90;;;;;;4914642;29;20103;-72
2021/10/13 00:46:47;;;;;;;30.20;18.20;;;7.50;99.90;;;;;;4913748;29;20089;-72
2021/10/13 00:49:12;;;;;;;34.20;17.73;;;7.60;99.90;;;;;;4914976;29;20043;-71
2021/10/13 00:51:38;;;;;;;35.17;17.90;;;7.60;99.90;;;;;;4914914;29;20069;-71
2021/10/13 00:54:04;;;;;;;35.00;19.40;;;7.70;99.90;;;;;;4915002;29;20032;-72
2021/10/13 00:56:30;;;;;;;40.22;20.85;;;7.70;99.90;;;;;;4914458;29;20103;-71
2021/10/13 00:58:56;;;;;;;35.17;20.02;;;7.70;99.90;;;;;;4915104;29;20028;-72
2021/10/13 01:01:35;;;;;;;45.92;21.15;;;7.90;99.90;;;;;;4915149;29;20052;-71
2021/10/13 01:04:16;;;;;;;41.10;21.70;;;7.90;99.90;;;;;;4915022;29;20111;-72
2021/10/13 01:06:44;;;;;;;44.28;22.65;;;8.00;99.90;;;;;;4915007;29;20372;-71
2021/10/13 01:09:31;;;;;;;44.88;23.38;;;7.90;99.90;;;;;;4913536;29;20024;-73
2021/10/13 01:12:12;;;;;;;40.58;21.40;;;8.00;99.90;;;;;;4916170;29;20020;-72
2021/10/13 01:15:00;;;;;;;38.88;21.33;;;7.90;99.90;;;;;;4914462;29;20032;-72
2021/10/13 01:17:36;;;;;;;40.10;20.73;;;7.90;99.90;;;;;;4915025;29;20032;-71
2021/10/13 01:20:29;;;;;;;33.78;18.50;;;7.90;99.90;;;;;;4914825;29;20652;-72
2021/10/13 01:23:18;;;;;;;31.98;18.20;;;7.90;99.90;;;;;;4916038;29;20025;-72
2021/10/13 01:25:51;;;;;;;30.13;18.13;;;7.80;99.90;;;;;;4913713;29;20532;-72
2021/10/13 01:28:26;;;;;;;29.90;17.48;;;7.90;99.90;;;;;;4918516;29;20039;-72
2021/10/13 01:31:03;;;;;;;31.17;17.35;;;8.00;99.90;;;;;;4918353;29;20031;-72
2021/10/13 01:33:37;;;;;;;37.38;19.98;;;8.00;99.90;;;;;;4918312;29;20158;-72
2021/10/13 01:36:08;;;;;;;34.00;17.38;;;8.10;99.90;;;;;;4917173;29;20021;-72
2021/10/13 01:38:42;;;;;;;33.23;18.83;;;8.10;99.90;;;;;;4918405;29;20023;-72
2021/10/13 01:41:10;;;;;;;32.63;17.73;;;8.20;99.90;;;;;;4918119;29;20161;-72
2021/10/13 01:43:41;;;;;;;36.13;19.15;;;8.30;99.90;;;;;;4918028;29;20040;-72
2021/10/13 01:46:08;;;;;;;38.80;18.95;;;8.40;99.90;;;;;;4917320;29;20501;-72
2021/10/13 01:48:35;;;;;;;34.20;18.38;;;8.50;99.90;;;;;;4917965;29;20114;-71
2021/10/13 01:51:02;;;;;;;28.95;17.02;;;8.30;99.90;;;;;;4917410;29;20024;-73
2021/10/13 01:53:28;;;;;;;32.85;17.50;;;8.30;99.90;;;;;;4917859;29;20389;-72
2021/10/13 01:55:57;;;;;;;32.70;17.90;;;8.30;99.90;;;;;;4917314;29;20028;-73
2021/10/13 01:58:24;;;;;;;34.78;18.63;;;8.30;99.90;;;;;;4916572;29;20035;-72
2021/10/13 02:00:51;;;;;;;31.52;18.08;;;8.40;99.90;;;;;;4917791;29;20036;-72
2021/10/13 02:03:20;;;;;;;31.52;17.95;;;8.50;99.90;;;;;;4917672;29;20024;-73
2021/10/13 02:05:48;;;;;;;33.78;17.95;;;8.60;99.90;;;;;;4917017;29;20289;-72
2021/10/13 02:08:16;;;;;;;34.13;16.85;;;8.60;99.90;;;;;;4917825;29;20436;-74
2021/10/13 02:10:45;;;;;;;26.88;16.35;;;8.60;99.90;;;;;;4917813;29;20036;-72
2021/10/13 02:13:12;;;;;;;27.42;17.23;;;8.50;99.90;;;;;;4917426;29;20020;-72
2021/10/13 02:15:41;;;;;;;29.00;17.05;;;8.50;99.90;;;;;;4916864;29;20031;-72
2021/10/13 02:18:12;;;;;;;27.67;16.77;;;8.60;99.90;;;;;;4917544;29;20108;-73
2021/10/13 02:20:38;;;;;;;32.05;16.98;;;8.50;99.90;;;;;;4918331;29;20036;-74
2021/10/13 02:23:05;;;;;;;27.27;15.88;;;8.40;99.90;;;;;;4917765;29;20036;-73
2021/10/13 02:25:37;;;;;;;24.73;14.50;;;8.40;99.90;;;;;;4916570;29;20476;-73
2021/10/13 02:28:22;;;;;;;24.17;15.52;;;8.50;99.90;;;;;;4917786;29;20031;-72
2021/10/13 02:30:48;;;;;;;16.80;11.25;;;8.40;99.90;;;;;;4917431;29;20613;-72
2021/10/13 02:33:14;;;;;;;15.70;10.80;;;8.40;99.90;;;;;;4916877;29;20043;-71
2021/10/13 02:35:40;;;;;;;17.23;11.57;;;8.40;99.90;;;;;;4916203;29;20129;-72
2021/10/13 02:38:05;;;;;;;17.88;10.90;;;8.30;99.90;;;;;;4916979;29;20036;-73
2021/10/13 02:40:31;;;;;;;23.88;11.95;;;8.40;99.90;;;;;;4916767;29;20036;-72
2021/10/13 02:42:57;;;;;;;17.17;11.68;;;8.40;99.90;;;;;;4916420;29;20039;-73
2021/10/13 02:45:23;;;;;;;20.40;13.18;;;8.40;99.90;;;;;;4915944;29;20470;-72
2021/10/13 02:48:18;;;;;;;19.80;12.43;;;8.40;99.90;;;;;;4916429;29;20684;-72
2021/10/13 02:50:44;;;;;;;20.75;12.00;;;8.20;99.90;;;;;;4917257;29;20387;-72
2021/10/13 02:53:25;;;;;;;23.90;13.43;;;8.30;99.90;;;;;;4917186;29;20020;-72
2021/10/13 02:56:25;;;;;;;22.77;13.45;;;8.40;99.90;;;;;;4916580;29;20067;-72
2021/10/13 02:59:10;;;;;;;19.40;13.38;;;8.30;99.90;;;;;;4916885;29;20063;-72
2021/10/13 03:01:43;;;;;;;15.02;11.05;;;8.20;99.90;;;;;;4916429;29;20031;-72
2021/10/13 03:04:16;;;;;;;20.77;10.40;;;8.20;99.90;;;;;;4916453;29;20024;-73
2021/10/13 03:06:59;;;;;;;20.10;11.30;;;8.20;99.90;;;;;;4916019;29;20046;-72
2021/10/13 03:09:28;;;;;;;20.23;11.95;;;8.30;99.90;;;;;;4916202;29;20035;-72
2021/10/13 03:11:58;;;;;;;19.67;11.65;;;8.40;99.90;;;;;;4946371;23;20052;-71
2021/10/13 03:14:25;;;;;;;17.85;11.63;;;8.50;99.90;;;;;;4915905;29;20028;-71
2021/10/13 03:16:53;;;;;;;14.50;10.40;;;8.40;99.90;;;;;;4916403;29;20209;-71
2021/10/13 03:19:21;;;;;;;18.30;11.95;;;8.40;99.90;;;;;;4930193;29;20039;-73
2021/10/13 03:21:49;;;;;;;14.73;11.15;;;8.20;99.90;;;;;;4916023;29;20087;-72
2021/10/13 03:24:16;;;;;;;13.93;10.50;;;8.20;99.90;;;;;;4915965;29;20028;-72
2021/10/13 03:26:50;;;;;;;17.52;11.70;;;8.10;99.90;;;;;;4915961;29;20374;-71
2021/10/13 03:29:16;;;;;;;16.98;10.98;;;8.20;99.90;;;;;;4915949;29;20056;-72
2021/10/13 03:31:42;;;;;;;19.10;10.88;;;8.20;99.90;;;;;;4915801;29;20438;-72
2021/10/13 03:34:09;;;;;;;21.23;11.75;;;8.30;99.90;;;;;;4915833;29;20048;-72
2021/10/13 03:36:43;;;;;;;19.95;11.50;;;8.30;99.90;;;;;;4915370;29;20083;-72
2021/10/13 03:39:10;;;;;;;15.02;10.70;;;8.40;99.90;;;;;;4917338;29;20028;-72
2021/10/13 03:41:36;;;;;;;18.02;11.45;;;8.20;99.90;;;;;;4915810;29;20108;-71
2021/10/13 03:44:02;;;;;;;16.88;11.02;;;8.30;99.90;;;;;;4915747;29;20032;-72
2021/10/13 03:46:28;;;;;;;14.75;10.30;;;8.20;99.90;;;;;;4914905;29;20028;-71
2021/10/13 03:48:54;;;;;;;17.23;10.05;;;8.00;99.90;;;;;;4915441;29;20050;-72
2021/10/13 03:51:20;;;;;;;15.15;10.25;;;8.10;99.90;;;;;;4915690;29;20036;-71
2021/10/13 03:53:45;;;;;;;16.52;10.85;;;8.00;99.90;;;;;;4915639;29;20024;-71
2021/10/13 03:56:12;;;;;;;14.32;10.05;;;8.10;99.90;;;;;;4914718;29;20035;-72
2021/10/13 03:58:38;;;;;;;19.60;10.65;;;8.00;99.90;;;;;;4915788;29;20035;-72
2021/10/13 04:01:04;;;;;;;17.85;10.75;;;8.00;99.90;;;;;;4915730;29;20026;-71
2021/10/13 04:03:29;;;;;;;16.50;11.23;;;7.90;99.90;;;;;;4915394;29;20526;-72
2021/10/13 04:05:55;;;;;;;17.48;10.95;;;7.90;99.90;;;;;;4915014;29;20028;-72
2021/10/13 04:08:21;;;;;;;19.48;10.90;;;7.80;99.90;;;;;;4915412;29;20128;-72
2021/10/13 04:10:46;;;;;;;17.00;11.18;;;7.70;99.90;;;;;;4915492;29;20047;-70
2021/10/13 04:13:12;;;;;;;20.67;11.60;;;7.80;99.90;;;;;;4915852;29;20514;-71
2021/10/13 04:15:38;;;;;;;17.98;10.80;;;7.70;99.90;;;;;;4914841;29;20033;-71
2021/10/13 04:18:06;;;;;;;22.55;12.05;;;7.70;99.90;;;;;;4913977;29;20039;-71
2021/10/13 04:20:32;;;;;;;23.38;13.10;;;7.70;99.90;;;;;;4915593;29;20038;-71
2021/10/13 04:22:58;;;;;;;22.83;13.00;;;7.70;99.90;;;;;;4915431;29;20024;-71
2021/10/13 04:25:24;;;;;;;18.85;12.77;;;7.80;99.90;;;;;;4914593;29;20062;-71
2021/10/13 04:27:50;;;;;;;22.73;13.50;;;7.70;99.90;;;;;;4915125;29;20428;-71
2021/10/13 04:30:16;;;;;;;27.77;13.68;;;7.80;99.90;;;;;;4915034;29;20032;-71
2021/10/13 04:32:43;;;;;;;23.10;14.20;;;7.80;99.90;;;;;;4914961;29;20028;-71
2021/10/13 04:35:09;;;;;;;26.05;14.45;;;7.80;99.90;;;;;;4914415;29;20024;-71
2021/10/13 04:37:35;;;;;;;19.20;12.98;;;7.70;99.90;;;;;;4915306;29;20038;-71
2021/10/13 04:40:02;;;;;;;25.60;13.10;;;7.60;99.90;;;;;;4915176;29;20107;-71
2021/10/13 04:42:28;;;;;;;20.02;13.77;;;7.70;99.90;;;;;;4913648;29;20028;-72
2021/10/13 04:44:54;;;;;;;18.25;12.73;;;7.70;99.90;;;;;;4923701;29;20029;-75
2021/10/13 04:47:19;;;;;;;21.88;13.48;;;7.60;99.90;;;;;;4911275;29;20035;-74
2021/10/13 04:49:45;;;;;;;19.58;12.85;;;7.60;99.90;;;;;;4914738;29;20030;-75
2021/10/13 04:52:11;;;;;;;18.90;12.80;;;7.60;99.90;;;;;;4912382;29;20040;-74
2021/10/13 04:54:36;;;;;;;22.77;12.38;;;7.60;99.90;;;;;;4914217;29;20028;-75
2021/10/13 04:57:03;;;;;;;20.98;12.05;;;7.60;99.90;;;;;;4915396;29;20028;-74
2021/10/13 04:59:28;;;;;;;18.55;12.77;;;7.60;99.90;;;;;;4918533;29;20051;-74
2021/10/13 05:01:54;;;;;;;19.52;12.38;;;7.60;99.90;;;;;;4917735;29;20375;-75
2021/10/13 05:04:19;;;;;;;18.85;13.20;;;7.50;99.90;;;;;;4917980;29;20390;-75
2021/10/13 05:06:45;;;;;;;17.63;11.95;;;7.50;99.90;;;;;;4917898;29;20197;-74
2021/10/13 05:09:11;;;;;;;16.45;12.32;;;7.50;99.90;;;;;;4918287;29;20035;-74
2021/10/13 05:11:37;;;;;;;19.58;12.80;;;7.50;99.90;;;;;;4917819;29;20040;-74
2021/10/13 05:14:03;;;;;;;16.23;12.45;;;7.50;99.90;;;;;;4918347;29;20367;-73
2021/10/13 05:16:29;;;;;;;17.42;12.38;;;7.50;99.90;;;;;;4917044;29;20528;-75
2021/10/13 05:18:54;;;;;;;22.85;13.52;;;7.40;99.90;;;;;;4918315;29;20024;-74
2021/10/13 05:21:21;;;;;;;21.20;12.98;;;7.40;99.90;;;;;;4918315;29;20096;-77
2021/10/13 05:23:47;;;;;;;18.35;13.13;;;7.40;99.90;;;;;;4918672;29;20074;-77
2021/10/13 05:26:12;;;;;;;17.55;13.35;;;7.70;99.90;;;;;;4917188;29;20640;-77
2021/10/13 05:28:38;;;;;;;20.77;13.07;;;7.70;99.90;;;;;;4917075;29;20079;-78
2021/10/13 05:31:03;;;;;;;23.95;14.52;;;7.80;99.90;;;;;;4918373;29;20032;-79
2021/10/13 05:33:29;;;;;;;24.80;15.80;;;7.90;99.90;;;;;;4917975;29;20024;-75
2021/10/13 05:35:55;;;;;;;21.23;13.98;;;7.90;99.90;;;;;;4917247;29;20505;-77
2021/10/13 05:38:20;;;;;;;23.30;15.80;;;7.90;99.90;;;;;;4917423;29;20039;-77
2021/10/13 05:40:46;;;;;;;22.08;14.98;;;8.00;99.90;;;;;;4917602;29;20546;-75
2021/10/13 05:43:12;;;;;;;29.52;16.27;;;8.10;99.90;;;;;;4910588;29;20376;-74
2021/10/13 05:45:38;;;;;;;26.40;16.20;;;8.00;99.90;;;;;;4916712;29;20028;-74
2021/10/13 05:48:04;;;;;;;30.15;17.38;;;8.00;99.90;;;;;;4906661;29;20036;-74
2021/10/13 05:50:29;;;;;;;27.75;17.05;;;7.90;99.90;;;;;;4906351;29;20033;-76
2021/10/13 05:52:55;;;;;;;27.20;15.95;;;7.80;99.90;;;;;;4900048;29;20035;-73
2021/10/13 05:55:21;;;;;;;28.55;15.95;;;7.70;99.90;;;;;;4899522;29;20108;-74
2021/10/13 05:57:46;;;;;;;28.42;17.77;;;7.80;99.90;;;;;;4899839;29;20499;-74
2021/10/13 06:00:13;;;;;;;28.10;17.08;;;7.80;99.90;;;;;;4899686;29;20578;-75
2021/10/13 06:02:38;;;;;;;31.35;17.75;;;7.80;99.90;;;;;;4899871;29;20021;-74
2021/10/13 06:05:05;;;;;;;39.63;18.80;;;7.70;99.90;;;;;;4899240;29;20103;-73
2021/10/13 06:07:31;;;;;;;35.20;18.20;;;7.70;99.90;;;;;;4899390;29;20725;-74
2021/10/13 06:09:57;;;;;;;34.72;18.45;;;7.70;99.90;;;;;;4899216;29;20035;-73
2021/10/13 06:12:22;;;;;;;37.35;19.42;;;7.70;99.90;;;;;;4916551;29;20087;-74
2021/10/13 06:14:48;;;;;;;33.72;19.92;;;7.60;99.90;;;;;;4917624;29;20487;-75
2021/10/13 06:17:14;;;;;;;41.70;21.92;;;7.70;99.90;;;;;;4917289;29;20060;-75
2021/10/13 06:19:39;;;;;;;40.15;20.45;;;7.70;99.90;;;;;;4913173;29;20046;-75
2021/10/13 06:22:05;;;;;;;31.10;18.67;;;7.70;99.90;;;;;;4907756;29;20601;-74
2021/10/13 06:24:31;;;;;;;34.70;18.75;;;7.70;99.90;;;;;;4914469;29;20114;-74
2021/10/13 06:26:56;;;;;;;24.85;15.20;;;7.70;99.90;;;;;;4917255;29;20036;-75
2021/10/13 06:29:22;;;;;;;23.88;14.85;;;7.60;99.90;;;;;;4916440;29;20043;-76
2021/10/13 06:31:48;;;;;;;22.95;15.27;;;7.60;99.90;;;;;;4918082;29;20076;-76
2021/10/13 06:34:15;;;;;;;23.13;14.82;;;7.70;99.90;;;;;;4917404;29;20032;-76
2021/10/13 06:36:41;;;;;;;19.75;13.13;;;7.80;99.90;;;;;;4916624;29;20103;-74
2021/10/13 06:39:07;;;;;;;19.52;13.30;;;7.70;99.90;;;;;;4917004;29;20030;-77
2021/10/13 06:41:33;;;;;;;17.13;12.98;;;7.70;99.90;;;;;;4916575;29;20135;-73
2021/10/13 06:43:59;;;;;;;17.17;12.93;;;7.80;99.90;;;;;;4916716;29;20115;-74
2021/10/13 06:46:24;;;;;;;18.27;12.65;;;7.80;99.90;;;;;;4930652;29;20135;-76
2021/10/13 06:48:50;;;;;;;18.73;13.35;;;7.80;99.90;;;;;;4916645;29;20028;-75
2021/10/13 06:51:16;;;;;;;18.25;13.18;;;7.80;99.90;;;;;;4913423;29;20023;-75
2021/10/13 06:53:46;;;;;;;19.55;12.85;;;7.80;99.90;;;;;;4916532;29;20475;-74
2021/10/13 06:56:11;;;;;;;17.13;12.95;;;7.90;99.90;;;;;;4915740;29;20024;-75
2021/10/13 06:58:37;;;;;;;16.45;11.68;;;8.10;99.90;;;;;;4916206;29;20034;-77
2021/10/13 07:01:03;;;;;;;20.35;12.43;;;8.40;99.90;;;;;;4916885;29;20027;-75
2021/10/13 07:03:29;;;;;;;18.88;11.27;;;8.70;99.90;;;;;;4918999;29;20031;-75
2021/10/13 07:05:54;;;;;;;17.17;11.05;;;8.50;99.90;;;;;;4915957;29;20394;-75
2021/10/13 07:08:20;;;;;;;15.80;10.75;;;8.50;99.90;;;;;;4916338;29;20239;-76
2021/10/13 07:10:46;;;;;;;17.42;11.38;;;8.30;99.90;;;;;;4915896;29;20106;-74
2021/10/13 07:13:11;;;;;;;14.98;11.75;;;8.20;99.90;;;;;;4916049;29;20786;-75
2021/10/13 07:15:37;;;;;;;22.00;15.70;;;8.00;99.90;;;;;;4915784;29;20024;-75
2021/10/13 07:18:03;;;;;;;15.02;10.95;;;8.10;99.90;;;;;;4916417;29;20090;-76
2021/10/13 07:20:29;;;;;;;16.73;12.02;;;7.90;99.90;;;;;;4915854;29;20055;-76
2021/10/13 07:22:55;;;;;;;19.65;11.90;;;7.90;99.90;;;;;;4916311;29;20487;-74
2021/10/13 07:25:24;;;;;;;20.17;11.63;;;8.00;99.90;;;;;;4910563;29;20549;-75
2021/10/13 07:27:51;;;;;;;18.05;11.57;;;8.00;99.90;;;;;;4910654;29;21286;-74
2021/10/13 07:30:21;;;;;;;21.63;13.07;;;8.20;99.90;;;;;;4916422;29;20032;-75
2021/10/13 07:32:47;;;;;;;13.30;11.15;;;8.30;99.90;;;;;;4917028;29;20016;-74
2021/10/13 07:35:13;;;;;;;21.30;11.50;;;8.40;99.90;;;;;;4916359;29;20498;-75
2021/10/13 07:37:39;;;;;;;19.90;12.18;;;8.60;99.90;;;;;;4916838;29;20511;-75
2021/10/13 07:40:06;;;;;;;15.63;11.55;;;8.80;99.90;;;;;;4916267;29;20092;-74
2021/10/13 07:42:32;;;;;;;14.40;10.70;;;8.90;99.90;;;;;;4916312;29;20032;-74
2021/10/13 07:44:58;;;;;;;15.85;13.13;;;8.60;99.90;;;;;;4915904;29;20491;-74
2021/10/13 07:47:24;;;;;;;20.85;15.45;;;8.50;99.90;;;;;;4915847;29;20040;-74
2021/10/13 07:49:49;;;;;;;18.02;12.52;;;8.80;99.90;;;;;;4915772;29;20054;-75
2021/10/13 07:52:15;;;;;;;13.82;9.93;;;9.10;99.90;;;;;;4915695;29;20040;-75
2021/10/13 07:54:41;;;;;;;16.50;9.75;;;9.00;99.90;;;;;;4914890;29;20032;-74
2021/10/13 07:57:07;;;;;;;30.38;22.58;;;8.90;99.90;;;;;;4914089;29;20483;-75
2021/10/13 07:59:32;;;;;;;12.18;9.85;;;9.20;99.90;;;;;;4915600;29;20047;-74
2021/10/13 08:01:58;;;;;;;18.63;9.55;;;9.20;99.90;;;;;;4915549;29;20024;-75
2021/10/13 08:04:25;;;;;;;25.63;12.05;;;9.20;99.90;;;;;;4914904;29;20087;-76
2021/10/13 08:06:52;;;;;;;12.70;7.65;;;8.90;99.90;;;;;;4915580;29;20032;-74
2021/10/13 08:09:18;;;;;;;14.63;7.30;;;8.90;99.90;;;;;;4914978;29;20036;-74
2021/10/13 08:11:44;;;;;;;11.75;7.75;;;9.20;99.90;;;;;;4913914;29;20058;-74
2021/10/13 08:14:10;;;;;;;10.48;7.88;;;9.50;99.90;;;;;;4915355;29;20640;-74
2021/10/13 08:16:35;;;;;;;13.20;8.57;;;9.70;99.90;;;;;;4914598;29;20032;-75
2021/10/13 08:19:01;;;;;;;13.48;7.38;;;10.10;99.90;;;;;;4915363;29;20047;-75
2021/10/13 08:21:26;;;;;;;6.68;5.05;;;10.60;99.90;;;;;;4915351;29;20035;-76
2021/10/13 08:23:52;;;;;;;6.72;3.38;;;10.70;99.90;;;;;;4918392;29;20115;-76
2021/10/13 08:26:18;;;;;;;6.43;4.72;;;11.70;99.90;;;;;;4916153;29;20051;-76
2021/10/13 08:28:44;;;;;;;12.55;4.95;;;12.70;99.90;;;;;;4909108;29;20047;-79
2021/10/13 08:31:09;;;;;;;6.65;4.47;;;14.60;99.90;;;;;;4918083;29;20028;-75
2021/10/13 08:33:35;;;;;;;7.20;5.10;;;15.80;99.90;;;;;;4921118;29;20020;-74
2021/10/13 08:36:01;;;;;;;6.93;4.30;;;15.40;99.90;;;;;;4918491;29;20023;-74
2021/10/13 08:38:26;;;;;;;10.68;4.70;;;14.90;99.90;;;;;;4918683;29;20032;-75
2021/10/13 08:40:52;;;;;;;6.35;4.20;;;12.30;99.90;;;;;;4933443;29;20406;-74
2021/10/13 08:43:18;;;;;;;10.90;4.43;;;11.60;99.90;;;;;;4918735;29;20168;-76
2021/10/13 08:45:44;;;;;;;7.95;3.97;;;11.50;99.90;;;;;;4918321;29;20121;-76
2021/10/13 08:48:09;;;;;;;8.75;4.70;;;11.00;99.90;;;;;;4918755;29;20039;-75
2021/10/13 08:50:38;;;;;;;9.75;5.82;;;11.40;99.90;;;;;;4918826;29;20031;-74
2021/10/13 08:53:12;;;;;;;8.02;6.03;;;11.30;99.90;;;;;;4918298;29;20047;-74
2021/10/13 08:55:40;;;;;;;9.23;5.78;;;11.30;99.90;;;;;;4918320;29;20022;-74
2021/10/13 08:58:10;;;;;;;7.40;4.82;;;11.20;99.90;;;;;;4918279;29;20028;-75
2021/10/13 09:00:36;;;;;;;8.20;5.82;;;11.20;99.90;;;;;;4918765;29;20094;-75
2021/10/13 09:03:02;;;;;;;6.07;3.97;;;10.80;99.90;;;;;;4919822;29;20581;-75
2021/10/13 09:05:28;;;;;;;9.38;6.20;;;10.20;99.90;;;;;;4919073;29;20028;-74
2021/10/13 09:07:56;;;;;;;9.27;5.15;;;10.20;99.90;;;;;;4919540;29;20088;-74
2021/10/13 09:10:36;;;;;;;9.75;4.75;;;10.30;99.90;;;;;;4919055;29;20028;-74
2021/10/13 09:13:15;;;;;;;14.73;5.63;;;10.20;99.90;;;;;;4972021;23;20961;-76
2021/10/13 09:15:48;;;;;;;4.85;2.38;;;10.30;99.90;;;;;;4975551;28;20384;-76
2021/10/13 09:18:14;;;;;;;3.85;1.67;;;10.20;99.90;;;;;;4975834;28;20019;-77
2021/10/13 09:20:41;;;;;;;5.28;1.90;;;11.30;99.90;;;;;;4976094;28;20058;-76
2021/10/13 09:23:31;;;;;;;3.25;1.40;;;13.20;99.90;;;;;;4976768;28;20023;-76
2021/10/13 09:26:08;;;;;;;3.70;1.48;;;14.90;99.90;;;;;;4973359;28;20489;-69
2021/10/13 09:28:34;;;;;;;4.00;1.58;;;16.60;99.90;;;;;;4975653;28;20026;-69
2021/10/13 09:31:14;;;;;;;3.17;1.60;;;17.80;99.90;;;;;;4975699;28;20047;-70
2021/10/13 09:33:53;;;;;;;2.22;1.58;;;17.10;99.90;;;;;;4975742;28;20027;-69
2021/10/13 09:36:19;;;;;;;7.90;2.50;;;15.00;99.90;;;;;;4974946;28;20023;-69
2021/10/13 09:38:45;;;;;;;3.53;1.75;;;14.30;99.90;;;;;;4975332;28;20030;-70
2021/10/13 09:41:10;;;;;;;5.70;2.13;;;13.50;99.90;;;;;;4975521;28;20031;-71
2021/10/13 09:43:38;;;;;;;3.53;2.20;;;13.00;99.90;;;;;;4967346;28;20035;-71
2021/10/13 09:46:12;;;;;;;4.28;2.03;;;14.40;99.90;;;;;;4955525;28;20028;-69
2021/10/13 09:48:56;;;;;;;8.25;2.20;;;15.50;99.90;;;;;;4954723;28;20027;-69
2021/10/13 09:51:23;;;;;;;5.35;1.90;;;14.70;99.90;;;;;;4956228;28;20032;-69
2021/10/13 09:53:54;;;;;;;3.47;1.60;;;14.10;99.90;;;;;;4955860;28;20035;-70
2021/10/13 09:56:32;;;;;;;6.60;1.90;;;16.90;99.90;;;;;;4955251;28;20027;-69
2021/10/13 09:59:10;;;;;;;2.83;1.30;;;18.10;99.90;;;;;;4955292;28;20019;-69
2021/10/13 10:01:37;;;;;;;4.10;1.60;;;19.00;99.90;;;;;;4955631;28;20150;-69
2021/10/13 10:04:06;;;;;;;3.33;3.03;;;17.20;99.90;;;;;;4955594;28;20117;-69
2021/10/13 10:06:34;;;;;;;10.20;2.78;;;18.60;99.90;;;;;;4955165;28;20023;-69
2021/10/13 10:09:00;;;;;;;3.95;1.45;;;19.00;99.50;;;;;;4953619;28;20033;-68
2021/10/13 10:11:47;;;;;;;3.03;1.70;;;16.50;99.90;;;;;;4955684;28;20174;-70
2021/10/13 10:14:31;;;;;;;2.88;1.88;;;15.30;99.90;;;;;;4954754;28;20046;-70
2021/10/13 10:16:57;;;;;;;2.83;1.63;;;15.20;99.90;;;;;;4955211;28;20030;-69
2021/10/13 10:19:24;;;;;;;3.50;1.60;;;13.70;99.90;;;;;;4955167;28;20085;-69
2021/10/13 10:21:55;;;;;;;1.60;1.00;;;13.30;99.90;;;;;;4955334;28;20102;-70
2021/10/13 10:24:32;;;;;;;3.25;1.23;;;13.40;99.90;;;;;;4954625;28;20038;-70
2021/10/13 10:27:31;;;;;;;3.17;1.40;;;12.30;99.90;;;;;;4955378;28;20035;-70
2021/10/13 10:30:15;;;;;;;4.95;1.73;;;12.20;99.90;;;;;;4963967;28;20047;-69
2021/10/13 10:33:05;;;;;;;5.72;1.92;;;12.80;99.90;;;;;;4955291;28;20031;-68
2021/10/13 10:35:43;;;;;;;4.68;1.55;;;13.00;99.90;;;;;;4954625;28;20020;-69
2021/10/13 10:38:10;;;;;;;5.15;1.73;;;13.20;99.90;;;;;;4955161;28;20027;-69
2021/10/13 10:40:39;;;;;;;2.03;1.50;;;13.40;99.90;;;;;;4955108;28;20055;-70
2021/10/13 10:43:18;;;;;;;3.08;1.98;;;13.00;99.90;;;;;;4954729;28;20023;-70
2021/10/13 10:45:51;;;;;;;4.50;2.60;;;12.60;99.90;;;;;;4954585;28;20034;-69
2021/10/13 10:48:17;;;;;;;7.72;2.80;;;12.50;99.90;;;;;;4955172;28;20426;-70
2021/10/13 10:50:55;;;;;;;3.45;2.60;;;12.50;99.90;;;;;;4955078;28;20367;-70
2021/10/13 10:53:27;;;;;;;5.97;3.20;;;12.30;99.90;;;;;;4953821;28;20485;-69
2021/10/13 10:55:54;;;;;;;6.40;3.00;;;12.20;99.90;;;;;;4954302;28;20027;-69
2021/10/13 10:58:22;;;;;;;8.50;3.65;;;12.20;99.90;;;;;;4954701;28;20070;-69
2021/10/13 11:00:59;;;;;;;10.35;6.03;;;11.80;99.90;;;;;;4954729;28;20034;-69
2021/10/13 11:03:34;;;;;;;34.17;6.22;;;11.70;99.90;;;;;;4954482;28;20486;-70
2021/10/13 11:06:20;;;;;;;16.38;3.85;;;11.30;99.90;;;;;;4952737;28;20488;-69
2021/10/13 11:08:52;;;;;;;5.50;2.40;;;11.00;99.90;;;;;;4954480;28;20050;-69
2021/10/13 11:11:20;;;;;;;10.77;3.50;;;10.50;99.90;;;;;;4954541;28;20031;-69
2021/10/13 11:13:55;;;;;;;13.88;3.58;;;10.50;99.90;;;;;;4954035;28;20090;-70
2021/10/13 11:16:20;;;;;;;9.52;3.63;;;10.60;99.90;;;;;;4953676;28;20023;-70
2021/10/13 11:18:46;;;;;;;6.60;3.05;;;10.70;99.90;;;;;;4953893;28;20029;-68
2021/10/13 11:21:12;;;;;;;3.40;2.25;;;10.80;99.90;;;;;;4954195;28;20524;-69
2021/10/13 11:23:37;;;;;;;6.28;2.40;;;11.20;99.90;;;;;;4954220;28;20430;-69
2021/10/13 11:26:03;;;;;;;7.25;2.47;;;11.70;99.90;;;;;;4953503;28;20110;-70
2021/10/13 11:28:37;;;;;;;4.95;1.98;;;13.00;99.90;;;;;;4954025;28;20038;-68
2021/10/13 11:31:05;;;;;;;1.73;1.20;;;14.00;99.90;;;;;;4954100;28;20082;-71
2021/10/13 11:33:32;;;;;;;3.63;1.00;;;15.50;99.90;;;;;;4954116;28;20027;-70
2021/10/13 11:36:07;;;;;;;2.35;0.90;;;17.50;99.90;;;;;;4953749;28;20393;-69
2021/10/13 11:38:39;;;;;;;3.50;1.38;;;18.40;99.90;;;;;;4954183;28;20592;-70
2021/10/13 11:41:14;;;;;;;1.98;1.23;;;19.40;99.90;;;;;;4959514;28;20035;-69
2021/10/13 11:43:43;;;;;;;0.98;0.70;;;20.90;96.50;;;;;;4963480;29;20385;-69
2021/10/13 11:46:15;;;;;;;3.13;1.35;;;20.40;95.20;;;;;;4958860;28;20037;-75
2021/10/13 11:48:41;;;;;;;1.23;0.75;;;21.40;94.90;;;;;;4972119;28;20019;-76
2021/10/13 11:51:13;;;;;;;3.22;1.02;;;20.20;92.80;;;;;;4972631;28;20400;-75
2021/10/13 11:53:39;;;;;;;;;;;18.70;94.80;;;;;;4973392;28;20110;-77
2021/10/13 11:56:10;;;;;;;3.47;1.35;;;17.60;95.90;;;;;;4972125;28;20107;-76
2021/10/13 11:58:36;;;;;;;1.92;1.58;;;15.70;99.90;;;;;;4972235;28;20539;-77
2021/10/13 12:01:02;;;;;;;4.13;1.38;;;14.30;99.90;;;;;;4972979;28;20035;-76
2021/10/13 12:03:36;;;;;;;2.75;1.40;;;13.70;99.90;;;;;;4972642;28;20117;-78
2021/10/13 12:06:03;;;;;;;3.50;1.60;;;13.70;99.90;;;;;;4970749;28;20489;-76
2021/10/13 12:08:33;;;;;;;2.53;1.10;;;14.10;99.90;;;;;;4972321;28;20434;-76
2021/10/13 12:11:18;;;;;;;5.85;1.40;;;14.20;99.90;;;;;;4972535;28;20607;-77
2021/10/13 12:13:49;;;;;;;3.25;1.25;;;13.90;99.90;;;;;;4972519;28;20500;-76
2021/10/13 12:16:23;;;;;;;4.07;1.40;;;13.30;99.90;;;;;;4971937;28;20023;-76
2021/10/13 12:18:49;;;;;;;3.35;0.93;;;12.90;99.90;;;;;;4972563;28;20027;-76
2021/10/13 12:21:18;;;;;;;4.47;0.80;;;12.60;99.90;;;;;;4972751;28;20106;-76
2021/10/13 12:23:43;;;;;;;1.75;0.98;;;12.70;99.90;;;;;;4972937;28;20481;-77
2021/10/13 12:26:14;;;;;;;2.08;0.80;;;12.80;99.90;;;;;;4972321;28;20041;-77
2021/10/13 12:28:39;;;;;;;2.25;0.73;;;13.20;99.90;;;;;;4972215;28;20116;-76
2021/10/13 12:31:08;;;;;;;1.42;0.70;;;13.70;99.90;;;;;;4972767;28;20496;-77
2021/10/13 12:33:45;;;;;;;4.18;1.30;;;13.70;99.90;;;;;;4972606;28;20462;-76
2021/10/13 12:36:14;;;;;;;1.92;1.20;;;14.20;99.90;;;;;;4971022;28;20397;-77
2021/10/13 12:38:49;;;;;;;2.05;0.90;;;14.30;99.90;;;;;;4972283;28;20074;-77
2021/10/13 12:41:16;;;;;;;1.02;0.75;;;15.10;99.90;;;;;;4972518;28;20031;-78
2021/10/13 12:43:48;;;;;;;1.90;0.70;;;15.60;99.90;;;;;;4972627;28;20037;-77
2021/10/13 12:46:33;;;;;;;2.35;0.88;;;17.20;99.90;;;;;;4971981;28;20497;-78
2021/10/13 12:49:14;;;;;;;2.25;0.60;;;17.70;99.80;;;;;;4972090;28;20055;-76